North Redington Beach, Florida
Current Conditions -  °F | °C
As of 9:53 AM on Monday 22 Dec 2014 (Local Time) from KPIE Reporting Station
Scattered Clouds Scattered Clouds  
Wind Chill: 70°   Ceiling: Unl
Heat Index: 70°   Visibility: 10mi
Dew Point: 67°   Wind: 10mph
Humidity: 90%   Direction: 150°SSE
Pressure: 30"   Gusts: NA
Location:  27.8164°N, 82.7802°W
Report Text: KPIE 221453Z 15009KT 10SM SCT008 21/19 A3000 RMK AO2 SLP157 T02110194 50003
Loading
Personal Weather Stations






























Interactive Weather Map New forecast layout! Learn more

10-Day Weather Forecast

Advertisements
Track Severe Weather on mobile